sensor_id;sensor_type;location;lat;lon;timestamp;P1;durP1;ratioP1;P2;durP2;ratioP2
56828;SDS011;52443;50.130;8.718;2022-07-21T00:03:07;12.13;;;10.30;;
56828;SDS011;52443;50.130;8.718;2022-07-21T00:08:09;12.50;;;9.82;;
56828;SDS011;52443;50.130;8.718;2022-07-21T00:13:12;14.18;;;9.88;;
56828;SDS011;52443;50.130;8.718;2022-07-21T00:18:16;12.63;;;9.50;;
56828;SDS011;52443;50.130;8.718;2022-07-21T00:23:21;12.20;;;9.77;;
56828;SDS011;52443;50.130;8.718;2022-07-21T00:28:30;12.77;;;10.05;;
56828;SDS011;52443;50.130;8.718;2022-07-21T00:33:36;12.70;;;9.70;;
56828;SDS011;52443;50.130;8.718;2022-07-21T00:38:39;12.13;;;9.90;;
56828;SDS011;52443;50.130;8.718;2022-07-21T00:43:47;11.68;;;9.25;;
56828;SDS011;52443;50.130;8.718;2022-07-21T00:48:51;11.07;;;9.38;;
56828;SDS011;52443;50.130;8.718;2022-07-21T00:53:54;15.18;;;10.02;;
56828;SDS011;52443;50.130;8.718;2022-07-21T00:58:57;12.60;;;9.45;;
56828;SDS011;52443;50.130;8.718;2022-07-21T01:04:12;10.90;;;8.68;;
56828;SDS011;52443;50.130;8.718;2022-07-21T01:09:24;11.18;;;9.60;;
56828;SDS011;52443;50.130;8.718;2022-07-21T01:14:27;10.63;;;8.85;;
56828;SDS011;52443;50.130;8.718;2022-07-21T01:19:35;12.52;;;9.80;;
56828;SDS011;52443;50.130;8.718;2022-07-21T01:24:40;11.52;;;9.95;;
56828;SDS011;52443;50.130;8.718;2022-07-21T01:29:43;12.00;;;10.23;;
56828;SDS011;52443;50.130;8.718;2022-07-21T01:34:46;13.70;;;10.02;;
56828;SDS011;52443;50.130;8.718;2022-07-21T01:39:50;12.68;;;9.40;;
56828;SDS011;52443;50.130;8.718;2022-07-21T01:44:53;12.15;;;9.98;;
56828;SDS011;52443;50.130;8.718;2022-07-21T01:49:56;12.13;;;9.73;;
56828;SDS011;52443;50.130;8.718;2022-07-21T01:55:01;11.23;;;9.32;;
56828;SDS011;52443;50.130;8.718;2022-07-21T02:00:04;10.30;;;9.20;;
56828;SDS011;52443;50.130;8.718;2022-07-21T02:05:10;12.02;;;9.98;;
56828;SDS011;52443;50.130;8.718;2022-07-21T02:10:14;10.70;;;9.15;;
56828;SDS011;52443;50.130;8.718;2022-07-21T02:15:17;12.43;;;10.02;;
56828;SDS011;52443;50.130;8.718;2022-07-21T02:20:20;11.15;;;9.32;;
56828;SDS011;52443;50.130;8.718;2022-07-21T02:25:24;11.32;;;9.52;;
56828;SDS011;52443;50.130;8.718;2022-07-21T02:30:27;12.18;;;9.13;;
56828;SDS011;52443;50.130;8.718;2022-07-21T02:35:30;9.18;;;7.78;;
56828;SDS011;52443;50.130;8.718;2022-07-21T02:40:34;7.35;;;6.30;;
56828;SDS011;52443;50.130;8.718;2022-07-21T02:45:37;7.28;;;5.95;;
56828;SDS011;52443;50.130;8.718;2022-07-21T02:50:41;7.07;;;5.40;;
56828;SDS011;52443;50.130;8.718;2022-07-21T02:55:47;7.07;;;5.82;;
56828;SDS011;52443;50.130;8.718;2022-07-21T03:00:55;5.88;;;4.82;;
56828;SDS011;52443;50.130;8.718;2022-07-21T03:06:01;6.53;;;5.25;;
56828;SDS011;52443;50.130;8.718;2022-07-21T03:11:06;6.20;;;4.47;;
56828;SDS011;52443;50.130;8.718;2022-07-21T03:16:11;5.32;;;4.25;;
56828;SDS011;52443;50.130;8.718;2022-07-21T03:21:14;5.03;;;4.15;;
56828;SDS011;52443;50.130;8.718;2022-07-21T03:26:18;5.65;;;3.75;;
56828;SDS011;52443;50.130;8.718;2022-07-21T03:31:21;5.38;;;3.75;;
56828;SDS011;52443;50.130;8.718;2022-07-21T03:36:24;4.90;;;3.50;;
56828;SDS011;52443;50.130;8.718;2022-07-21T03:41:27;6.60;;;4.05;;
56828;SDS011;52443;50.130;8.718;2022-07-21T03:46:30;5.47;;;3.90;;
56828;SDS011;52443;50.130;8.718;2022-07-21T03:51:33;5.65;;;4.15;;
56828;SDS011;52443;50.130;8.718;2022-07-21T03:56:38;6.47;;;4.00;;
56828;SDS011;52443;50.130;8.718;2022-07-21T04:01:40;6.38;;;3.70;;
56828;SDS011;52443;50.130;8.718;2022-07-21T04:06:43;4.97;;;3.45;;
56828;SDS011;52443;50.130;8.718;2022-07-21T04:11:47;8.45;;;4.43;;
56828;SDS011;52443;50.130;8.718;2022-07-21T04:16:54;5.18;;;3.60;;
56828;SDS011;52443;50.130;8.718;2022-07-21T04:21:58;5.40;;;3.67;;
56828;SDS011;52443;50.130;8.718;2022-07-21T04:27:02;4.80;;;3.67;;
56828;SDS011;52443;50.130;8.718;2022-07-21T04:32:05;6.35;;;4.00;;
56828;SDS011;52443;50.130;8.718;2022-07-21T04:37:09;5.05;;;4.28;;
56828;SDS011;52443;50.130;8.718;2022-07-21T04:42:13;4.85;;;3.42;;
56828;SDS011;52443;50.130;8.718;2022-07-21T04:47:22;5.13;;;3.80;;
56828;SDS011;52443;50.130;8.718;2022-07-21T04:52:25;5.40;;;4.07;;
56828;SDS011;52443;50.130;8.718;2022-07-21T04:57:29;5.18;;;3.80;;
56828;SDS011;52443;50.130;8.718;2022-07-21T05:02:31;4.40;;;3.40;;
56828;SDS011;52443;50.130;8.718;2022-07-21T05:07:34;4.65;;;3.70;;
56828;SDS011;52443;50.130;8.718;2022-07-21T05:12:40;5.35;;;3.80;;
56828;SDS011;52443;50.130;8.718;2022-07-21T05:28:52;5.22;;;3.53;;
56828;SDS011;52443;50.130;8.718;2022-07-21T05:33:56;5.63;;;4.47;;
56828;SDS011;52443;50.130;8.718;2022-07-21T05:39:08;4.97;;;3.97;;
56828;SDS011;52443;50.130;8.718;2022-07-21T05:44:12;5.72;;;3.70;;
56828;SDS011;52443;50.130;8.718;2022-07-21T05:49:15;6.00;;;4.10;;
56828;SDS011;52443;50.130;8.718;2022-07-21T05:54:18;6.00;;;4.00;;
56828;SDS011;52443;50.130;8.718;2022-07-21T05:59:22;5.90;;;4.22;;
56828;SDS011;52443;50.130;8.718;2022-07-21T06:04:26;7.15;;;4.45;;
56828;SDS011;52443;50.130;8.718;2022-07-21T06:09:29;6.43;;;4.53;;
56828;SDS011;52443;50.130;8.718;2022-07-21T06:14:33;6.28;;;4.25;;
56828;SDS011;52443;50.130;8.718;2022-07-21T06:19:38;6.85;;;4.60;;
56828;SDS011;52443;50.130;8.718;2022-07-21T06:24:40;7.47;;;4.70;;
56828;SDS011;52443;50.130;8.718;2022-07-21T06:29:45;6.60;;;4.35;;
56828;SDS011;52443;50.130;8.718;2022-07-21T06:34:48;6.60;;;4.38;;
56828;SDS011;52443;50.130;8.718;2022-07-21T06:39:51;6.32;;;4.43;;
56828;SDS011;52443;50.130;8.718;2022-07-21T06:44:55;6.07;;;4.68;;
56828;SDS011;52443;50.130;8.718;2022-07-21T06:49:58;7.10;;;4.63;;
56828;SDS011;52443;50.130;8.718;2022-07-21T06:55:07;6.13;;;4.80;;
56828;SDS011;52443;50.130;8.718;2022-07-21T07:00:13;6.13;;;4.68;;
56828;SDS011;52443;50.130;8.718;2022-07-21T07:05:17;6.15;;;4.70;;
56828;SDS011;52443;50.130;8.718;2022-07-21T07:10:19;8.48;;;5.15;;
56828;SDS011;52443;50.130;8.718;2022-07-21T07:15:24;5.80;;;4.90;;
56828;SDS011;52443;50.130;8.718;2022-07-21T07:20:27;6.22;;;4.70;;
56828;SDS011;52443;50.130;8.718;2022-07-21T07:25:29;6.57;;;4.63;;
56828;SDS011;52443;50.130;8.718;2022-07-21T07:30:34;6.57;;;4.60;;
56828;SDS011;52443;50.130;8.718;2022-07-21T07:35:38;7.25;;;4.80;;
56828;SDS011;52443;50.130;8.718;2022-07-21T07:40:41;6.97;;;5.00;;
56828;SDS011;52443;50.130;8.718;2022-07-21T07:45:46;6.57;;;4.72;;
56828;SDS011;52443;50.130;8.718;2022-07-21T07:50:49;6.45;;;4.10;;
56828;SDS011;52443;50.130;8.718;2022-07-21T07:55:51;5.22;;;4.13;;
56828;SDS011;52443;50.130;8.718;2022-07-21T08:00:55;6.07;;;4.03;;
56828;SDS011;52443;50.130;8.718;2022-07-21T08:06:06;6.30;;;4.32;;
56828;SDS011;52443;50.130;8.718;2022-07-21T08:11:09;6.93;;;4.10;;
56828;SDS011;52443;50.130;8.718;2022-07-21T08:16:13;5.95;;;4.13;;
56828;SDS011;52443;50.130;8.718;2022-07-21T08:21:16;5.57;;;4.03;;
56828;SDS011;52443;50.130;8.718;2022-07-21T08:26:19;5.00;;;4.00;;
56828;SDS011;52443;50.130;8.718;2022-07-21T08:31:23;6.68;;;4.13;;
56828;SDS011;52443;50.130;8.718;2022-07-21T08:36:26;5.72;;;3.60;;
56828;SDS011;52443;50.130;8.718;2022-07-21T08:41:29;5.25;;;3.85;;
56828;SDS011;52443;50.130;8.718;2022-07-21T08:46:35;5.35;;;3.88;;
56828;SDS011;52443;50.130;8.718;2022-07-21T08:51:39;5.70;;;3.80;;
56828;SDS011;52443;50.130;8.718;2022-07-21T08:56:42;5.53;;;3.78;;
56828;SDS011;52443;50.130;8.718;2022-07-21T09:01:46;5.68;;;3.53;;
56828;SDS011;52443;50.130;8.718;2022-07-21T09:06:49;5.55;;;3.47;;
56828;SDS011;52443;50.130;8.718;2022-07-21T09:11:55;5.22;;;3.35;;
56828;SDS011;52443;50.130;8.718;2022-07-21T09:17:02;6.28;;;3.42;;
56828;SDS011;52443;50.130;8.718;2022-07-21T09:22:11;5.97;;;4.00;;
56828;SDS011;52443;50.130;8.718;2022-07-21T09:27:16;4.60;;;3.15;;
56828;SDS011;52443;50.130;8.718;2022-07-21T09:32:22;4.75;;;3.40;;
56828;SDS011;52443;50.130;8.718;2022-07-21T09:37:27;5.28;;;3.60;;
56828;SDS011;52443;50.130;8.718;2022-07-21T09:42:30;4.82;;;3.78;;
56828;SDS011;52443;50.130;8.718;2022-07-21T09:47:37;5.40;;;3.95;;
56828;SDS011;52443;50.130;8.718;2022-07-21T09:52:42;4.85;;;3.35;;
56828;SDS011;52443;50.130;8.718;2022-07-21T09:57:47;4.65;;;3.20;;
56828;SDS011;52443;50.130;8.718;2022-07-21T10:02:52;5.05;;;3.47;;
56828;SDS011;52443;50.130;8.718;2022-07-21T10:07:56;5.15;;;3.55;;
56828;SDS011;52443;50.130;8.718;2022-07-21T10:13:03;4.30;;;3.10;;
56828;SDS011;52443;50.130;8.718;2022-07-21T10:18:07;6.18;;;3.42;;
56828;SDS011;52443;50.130;8.718;2022-07-21T10:28:23;5.13;;;3.20;;
56828;SDS011;52443;50.130;8.718;2022-07-21T10:39:17;4.60;;;3.47;;
56828;SDS011;52443;50.130;8.718;2022-07-21T10:44:37;4.82;;;3.22;;
56828;SDS011;52443;50.130;8.718;2022-07-21T10:49:53;4.35;;;3.10;;
56828;SDS011;52443;50.130;8.718;2022-07-21T10:55:13;4.53;;;3.10;;
56828;SDS011;52443;50.130;8.718;2022-07-21T11:00:23;4.13;;;3.10;;
56828;SDS011;52443;50.130;8.718;2022-07-21T11:05:30;4.38;;;3.10;;
56828;SDS011;52443;50.130;8.718;2022-07-21T11:10:35;4.28;;;2.95;;
56828;SDS011;52443;50.130;8.718;2022-07-21T11:15:46;4.00;;;2.88;;
56828;SDS011;52443;50.130;8.718;2022-07-21T11:21:08;4.47;;;2.95;;
56828;SDS011;52443;50.130;8.718;2022-07-21T11:26:15;3.58;;;2.85;;
56828;SDS011;52443;50.130;8.718;2022-07-21T11:31:20;4.90;;;2.88;;
56828;SDS011;52443;50.130;8.718;2022-07-21T11:36:25;5.00;;;2.80;;
56828;SDS011;52443;50.130;8.718;2022-07-21T11:41:29;3.88;;;2.60;;
56828;SDS011;52443;50.130;8.718;2022-07-21T11:46:44;3.70;;;2.35;;
56828;SDS011;52443;50.130;8.718;2022-07-21T11:51:52;3.00;;;2.30;;
56828;SDS011;52443;50.130;8.718;2022-07-21T11:56:59;4.43;;;2.80;;
56828;SDS011;52443;50.130;8.718;2022-07-21T12:02:05;4.95;;;2.80;;
56828;SDS011;52443;50.130;8.718;2022-07-21T12:07:22;4.50;;;2.40;;
56828;SDS011;52443;50.130;8.718;2022-07-21T12:12:29;3.95;;;2.58;;
56828;SDS011;52443;50.130;8.718;2022-07-21T12:17:35;5.07;;;2.50;;
56828;SDS011;52443;50.130;8.718;2022-07-21T12:22:42;5.10;;;2.40;;
56828;SDS011;52443;50.130;8.718;2022-07-21T12:27:48;3.65;;;2.50;;
56828;SDS011;52443;50.130;8.718;2022-07-21T12:33:00;4.50;;;3.08;;
56828;SDS011;52443;50.130;8.718;2022-07-21T12:38:08;4.20;;;2.63;;
56828;SDS011;52443;50.130;8.718;2022-07-21T12:43:13;3.88;;;2.50;;
56828;SDS011;52443;50.130;8.718;2022-07-21T12:48:18;3.65;;;2.50;;
56828;SDS011;52443;50.130;8.718;2022-07-21T12:53:24;5.03;;;2.83;;
56828;SDS011;52443;50.130;8.718;2022-07-21T12:58:27;3.63;;;2.53;;
56828;SDS011;52443;50.130;8.718;2022-07-21T13:03:30;4.60;;;2.80;;
56828;SDS011;52443;50.130;8.718;2022-07-21T13:08:36;4.65;;;2.53;;
56828;SDS011;52443;50.130;8.718;2022-07-21T13:13:41;3.92;;;2.97;;
56828;SDS011;52443;50.130;8.718;2022-07-21T13:18:44;4.80;;;2.92;;
56828;SDS011;52443;50.130;8.718;2022-07-21T13:23:48;5.47;;;3.10;;
56828;SDS011;52443;50.130;8.718;2022-07-21T13:28:50;4.82;;;3.22;;
56828;SDS011;52443;50.130;8.718;2022-07-21T13:33:54;3.85;;;3.00;;
56828;SDS011;52443;50.130;8.718;2022-07-21T13:38:58;4.95;;;3.35;;
56828;SDS011;52443;50.130;8.718;2022-07-21T13:44:21;5.45;;;3.22;;
56828;SDS011;52443;50.130;8.718;2022-07-21T13:49:24;4.25;;;2.88;;
56828;SDS011;52443;50.130;8.718;2022-07-21T13:54:29;4.95;;;3.13;;
56828;SDS011;52443;50.130;8.718;2022-07-21T13:59:34;4.28;;;3.00;;
56828;SDS011;52443;50.130;8.718;2022-07-21T14:04:37;5.93;;;3.55;;
56828;SDS011;52443;50.130;8.718;2022-07-21T14:09:41;5.28;;;3.63;;
56828;SDS011;52443;50.130;8.718;2022-07-21T14:14:46;6.07;;;3.58;;
56828;SDS011;52443;50.130;8.718;2022-07-21T14:19:49;4.75;;;3.15;;
56828;SDS011;52443;50.130;8.718;2022-07-21T14:24:53;5.25;;;3.50;;
56828;SDS011;52443;50.130;8.718;2022-07-21T14:29:56;4.75;;;3.42;;
56828;SDS011;52443;50.130;8.718;2022-07-21T14:34:58;4.45;;;3.28;;
56828;SDS011;52443;50.130;8.718;2022-07-21T14:40:03;4.88;;;3.10;;
56828;SDS011;52443;50.130;8.718;2022-07-21T14:45:08;4.88;;;3.55;;
56828;SDS011;52443;50.130;8.718;2022-07-21T14:50:16;3.77;;;3.23;;
56828;SDS011;52443;50.130;8.718;2022-07-21T14:55:28;4.50;;;3.38;;
56828;SDS011;52443;50.130;8.718;2022-07-21T15:00:33;5.35;;;4.00;;
56828;SDS011;52443;50.130;8.718;2022-07-21T15:05:35;7.18;;;3.97;;
56828;SDS011;52443;50.130;8.718;2022-07-21T15:10:40;4.47;;;3.25;;
56828;SDS011;52443;50.130;8.718;2022-07-21T15:15:44;6.78;;;3.90;;
56828;SDS011;52443;50.130;8.718;2022-07-21T15:20:47;6.00;;;4.03;;
56828;SDS011;52443;50.130;8.718;2022-07-21T15:25:52;5.22;;;3.75;;
56828;SDS011;52443;50.130;8.718;2022-07-21T15:30:54;4.57;;;3.47;;
56828;SDS011;52443;50.130;8.718;2022-07-21T15:36:02;5.75;;;3.58;;
56828;SDS011;52443;50.130;8.718;2022-07-21T15:41:08;6.07;;;3.60;;
56828;SDS011;52443;50.130;8.718;2022-07-21T15:46:36;4.55;;;3.28;;
56828;SDS011;52443;50.130;8.718;2022-07-21T15:51:38;5.13;;;3.58;;
56828;SDS011;52443;50.130;8.718;2022-07-21T15:56:42;4.68;;;3.58;;
56828;SDS011;52443;50.130;8.718;2022-07-21T16:01:45;5.45;;;3.63;;
56828;SDS011;52443;50.130;8.718;2022-07-21T16:06:48;5.82;;;4.18;;
56828;SDS011;52443;50.130;8.718;2022-07-21T16:11:56;6.50;;;4.50;;
56828;SDS011;52443;50.130;8.718;2022-07-21T16:16:59;5.53;;;3.88;;
56828;SDS011;52443;50.130;8.718;2022-07-21T16:22:02;5.50;;;3.88;;
56828;SDS011;52443;50.130;8.718;2022-07-21T16:27:08;5.57;;;3.58;;
56828;SDS011;52443;50.130;8.718;2022-07-21T16:32:11;5.28;;;3.22;;
56828;SDS011;52443;50.130;8.718;2022-07-21T16:37:15;5.90;;;3.60;;
56828;SDS011;52443;50.130;8.718;2022-07-21T16:42:20;5.35;;;3.75;;
56828;SDS011;52443;50.130;8.718;2022-07-21T16:47:23;5.20;;;3.70;;
56828;SDS011;52443;50.130;8.718;2022-07-21T16:52:25;4.75;;;3.60;;
56828;SDS011;52443;50.130;8.718;2022-07-21T16:57:30;4.90;;;3.65;;
56828;SDS011;52443;50.130;8.718;2022-07-21T17:02:33;5.45;;;3.80;;
56828;SDS011;52443;50.130;8.718;2022-07-21T17:07:35;6.00;;;4.18;;
56828;SDS011;52443;50.130;8.718;2022-07-21T17:12:40;5.72;;;4.03;;
56828;SDS011;52443;50.130;8.718;2022-07-21T17:17:44;5.25;;;3.80;;
56828;SDS011;52443;50.130;8.718;2022-07-21T17:22:55;4.70;;;4.00;;
56828;SDS011;52443;50.130;8.718;2022-07-21T17:27:59;5.60;;;4.10;;
56828;SDS011;52443;50.130;8.718;2022-07-21T17:33:02;5.75;;;4.30;;
56828;SDS011;52443;50.130;8.718;2022-07-21T17:38:07;7.90;;;4.35;;
56828;SDS011;52443;50.130;8.718;2022-07-21T17:43:11;5.03;;;3.60;;
56828;SDS011;52443;50.130;8.718;2022-07-21T17:48:13;4.45;;;3.40;;
56828;SDS011;52443;50.130;8.718;2022-07-21T17:53:16;5.45;;;3.72;;
56828;SDS011;52443;50.130;8.718;2022-07-21T17:58:20;5.70;;;3.70;;
56828;SDS011;52443;50.130;8.718;2022-07-21T18:03:23;5.20;;;3.50;;
56828;SDS011;52443;50.130;8.718;2022-07-21T18:08:57;5.50;;;3.92;;
56828;SDS011;52443;50.130;8.718;2022-07-21T18:13:53;5.30;;;3.75;;
56828;SDS011;52443;50.130;8.718;2022-07-21T18:18:58;4.47;;;3.58;;
56828;SDS011;52443;50.130;8.718;2022-07-21T18:24:01;5.70;;;3.85;;
56828;SDS011;52443;50.130;8.718;2022-07-21T18:29:06;4.35;;;3.70;;
56828;SDS011;52443;50.130;8.718;2022-07-21T18:34:08;5.95;;;3.63;;
56828;SDS011;52443;50.130;8.718;2022-07-21T18:39:11;7.43;;;4.30;;
56828;SDS011;52443;50.130;8.718;2022-07-21T18:44:15;5.68;;;4.25;;
56828;SDS011;52443;50.130;8.718;2022-07-21T18:49:19;6.53;;;4.60;;
56828;SDS011;52443;50.130;8.718;2022-07-21T18:54:22;5.75;;;4.75;;
56828;SDS011;52443;50.130;8.718;2022-07-21T18:59:26;6.22;;;4.55;;
56828;SDS011;52443;50.130;8.718;2022-07-21T19:04:29;6.75;;;4.68;;
56828;SDS011;52443;50.130;8.718;2022-07-21T19:09:32;6.80;;;4.35;;
56828;SDS011;52443;50.130;8.718;2022-07-21T19:14:35;6.95;;;4.40;;
56828;SDS011;52443;50.130;8.718;2022-07-21T19:19:39;7.53;;;4.88;;
56828;SDS011;52443;50.130;8.718;2022-07-21T19:24:42;7.13;;;4.70;;
56828;SDS011;52443;50.130;8.718;2022-07-21T19:29:47;7.07;;;5.00;;
56828;SDS011;52443;50.130;8.718;2022-07-21T19:34:49;7.18;;;5.50;;
56828;SDS011;52443;50.130;8.718;2022-07-21T19:39:52;6.95;;;4.88;;
56828;SDS011;52443;50.130;8.718;2022-07-21T19:44:57;6.28;;;4.82;;
56828;SDS011;52443;50.130;8.718;2022-07-21T19:50:00;6.80;;;4.80;;
56828;SDS011;52443;50.130;8.718;2022-07-21T19:55:03;7.68;;;5.57;;
56828;SDS011;52443;50.130;8.718;2022-07-21T20:00:11;7.70;;;5.53;;
56828;SDS011;52443;50.130;8.718;2022-07-21T20:05:16;8.00;;;5.30;;
56828;SDS011;52443;50.130;8.718;2022-07-21T20:10:19;6.95;;;4.88;;
56828;SDS011;52443;50.130;8.718;2022-07-21T20:15:24;6.47;;;4.95;;
56828;SDS011;52443;50.130;8.718;2022-07-21T20:20:27;6.03;;;4.32;;
56828;SDS011;52443;50.130;8.718;2022-07-21T20:25:30;6.22;;;4.07;;
56828;SDS011;52443;50.130;8.718;2022-07-21T20:30:35;6.18;;;3.95;;
56828;SDS011;52443;50.130;8.718;2022-07-21T20:35:38;5.30;;;3.63;;
56828;SDS011;52443;50.130;8.718;2022-07-21T20:40:41;3.97;;;3.05;;
56828;SDS011;52443;50.130;8.718;2022-07-21T20:45:59;4.88;;;3.22;;
56828;SDS011;52443;50.130;8.718;2022-07-21T20:51:02;4.35;;;3.00;;
56828;SDS011;52443;50.130;8.718;2022-07-21T20:56:05;4.25;;;3.00;;
56828;SDS011;52443;50.130;8.718;2022-07-21T21:01:30;5.38;;;3.75;;
56828;SDS011;52443;50.130;8.718;2022-07-21T21:06:33;5.78;;;4.10;;
56828;SDS011;52443;50.130;8.718;2022-07-21T21:11:36;5.18;;;3.80;;
56828;SDS011;52443;50.130;8.718;2022-07-21T21:16:40;5.65;;;3.90;;
56828;SDS011;52443;50.130;8.718;2022-07-21T21:21:43;5.50;;;3.70;;
56828;SDS011;52443;50.130;8.718;2022-07-21T21:26:46;5.60;;;3.90;;
56828;SDS011;52443;50.130;8.718;2022-07-21T21:31:50;4.72;;;3.33;;
56828;SDS011;52443;50.130;8.718;2022-07-21T21:36:53;4.47;;;3.40;;
56828;SDS011;52443;50.130;8.718;2022-07-21T21:41:56;5.43;;;3.72;;
56828;SDS011;52443;50.130;8.718;2022-07-21T21:47:01;5.32;;;3.67;;
56828;SDS011;52443;50.130;8.718;2022-07-21T21:52:15;5.30;;;3.65;;
56828;SDS011;52443;50.130;8.718;2022-07-21T21:57:18;5.88;;;3.60;;
56828;SDS011;52443;50.130;8.718;2022-07-21T22:02:22;6.05;;;3.58;;
56828;SDS011;52443;50.130;8.718;2022-07-21T22:07:25;5.43;;;3.55;;
56828;SDS011;52443;50.130;8.718;2022-07-21T22:12:27;5.28;;;3.80;;
56828;SDS011;52443;50.130;8.718;2022-07-21T22:17:31;6.20;;;3.78;;
56828;SDS011;52443;50.130;8.718;2022-07-21T22:22:43;5.75;;;4.00;;
56828;SDS011;52443;50.130;8.718;2022-07-21T22:27:53;5.15;;;3.70;;
56828;SDS011;52443;50.130;8.718;2022-07-21T22:33:00;4.93;;;3.47;;
56828;SDS011;52443;50.130;8.718;2022-07-21T22:38:04;5.05;;;3.47;;
56828;SDS011;52443;50.130;8.718;2022-07-21T22:43:17;6.28;;;3.90;;
56828;SDS011;52443;50.130;8.718;2022-07-21T22:48:27;6.73;;;4.00;;
56828;SDS011;52443;50.130;8.718;2022-07-21T22:53:33;6.47;;;4.22;;
56828;SDS011;52443;50.130;8.718;2022-07-21T22:58:36;4.40;;;3.45;;
56828;SDS011;52443;50.130;8.718;2022-07-21T23:03:41;8.35;;;4.22;;
56828;SDS011;52443;50.130;8.718;2022-07-21T23:08:44;6.53;;;4.25;;
56828;SDS011;52443;50.130;8.718;2022-07-21T23:13:47;5.82;;;3.90;;
56828;SDS011;52443;50.130;8.718;2022-07-21T23:18:51;7.18;;;4.38;;
56828;SDS011;52443;50.130;8.718;2022-07-21T23:23:55;5.60;;;3.40;;
56828;SDS011;52443;50.130;8.718;2022-07-21T23:28:57;5.80;;;3.97;;
56828;SDS011;52443;50.130;8.718;2022-07-21T23:34:02;5.30;;;4.03;;
56828;SDS011;52443;50.130;8.718;2022-07-21T23:39:09;5.32;;;3.95;;
56828;SDS011;52443;50.130;8.718;2022-07-21T23:44:12;5.75;;;3.92;;
56828;SDS011;52443;50.130;8.718;2022-07-21T23:49:16;5.68;;;4.10;;
56828;SDS011;52443;50.130;8.718;2022-07-21T23:54:19;5.32;;;4.00;;
56828;SDS011;52443;50.130;8.718;2022-07-21T23:59:22;4.68;;;3.63;;
